Sedgwick Reserve, California Weather observations

Data are for 10 minute period ending at time listed.
 Day   Time   Solar   Ave.   Ave.  Ave.  Vector  Max.   Baro.   Total    
  of    of     Rad.   Air    Rel.  Wind   Wind   Wind  Press.  Precip.   
Year   Day            Temp.  Hum.  Speed  Dir.   Gust                    
2014   (PST)  Kw/m2    F      %     mph   deg.    mph    mb.     in.     
-------------------------------------------------------------------------
 350   13:50   0.46   60.0    65    4.4   236     7.8   971.3    0.00 
 350   14:00   0.53   61.4    60    4.6   245    11.5   971.3    0.00 
 350   14:10   0.25   59.9    60    6.2   247    10.1   971.3    0.00 
 350   14:20   0.21   59.4    60    5.1   235     8.6   971.3    0.00 
 350   14:30   0.31   60.1    64    6.1   189    13.2   971.2    0.00 
 350   14:40   0.18   59.1    66    7.1   182    10.8   971.0    0.00 
 350   14:50   0.18   58.7    68    6.2   163     8.9   971.0    0.00 
 350   15:00   0.30   59.3    68    5.5   198    10.7   971.0    0.00 
 350   15:10   0.30   59.1    69    6.2   198    10.4   971.0    0.00 
 350   15:20   0.25   59.2    69    5.4   206     9.6   971.0    0.00 
 350   15:30   0.21   59.1    69    5.0   195     8.7   971.0    0.00 
 350   15:40   0.18   59.0    67    5.1   190     7.7   971.1    0.00 
 350   15:50   0.15   59.3    67    3.9   212     6.8   971.1    0.00 
 350   16:00   0.12   58.7    68    6.7   212     9.6   971.3    0.00 
 350   16:10   0.05   57.6    72    7.0   223    10.9   971.5    0.00 
 350   16:20   0.04   56.8    73    8.1   228    14.1   971.6    0.00 
 350   16:30   0.02   56.2    73    7.5   224    11.8   971.6    0.00 
 350   16:40   0.01   55.9    75    5.5   214    11.3   971.5    0.00 
 350   16:50   0.00   55.4    76    5.3   211     8.8   971.6    0.00 
 350   17:00   0.00   55.0    77    4.1   203     7.3   971.7    0.00 
 350   17:10   0.00   54.4    78    1.9   138     4.5   971.6    0.00 
 350   17:20   0.00   53.7    80    1.8    40     3.7   971.6    0.00 
 350   17:30   0.00   53.3    81    1.0    91     2.6   971.6    0.00 
 350   17:40   0.00   52.7    83    0.8    20     3.4   971.8    0.00 
 350   17:50   0.00   51.9    84    1.4     1     2.6   971.8    0.00 
 350   18:00   0.00   51.1    86    1.3   277     2.7   972.0    0.00 
 350   18:10   0.00   50.5    87    1.7   346     3.0   972.2    0.00 
 350   18:20   0.00   49.7    88    1.6   298     4.3   972.3    0.00 
 350   18:30   0.00   49.4    90    3.0   304     4.6   972.3    0.00 
 350   18:40   0.00   49.4    90    2.1    14     3.4   972.3    0.00 
 350   18:50   0.00   49.5    90    2.1   353     3.7   972.3    0.00 
 350   19:00   0.00   49.0    90    2.1   278     3.9   972.4    0.00 
 350   19:10   0.00   48.3    91    4.7     8     6.9   972.3    0.00 
 350   19:20   0.00   48.2    93    3.3   325     6.4   972.4    0.00 
 350   19:30   0.00   48.6    92    1.9   263     3.4   972.5    0.00 
 350   19:40   0.00   48.8    92    2.1   306     4.5   972.5    0.00 
 350   19:50   0.00   48.7    92    1.7    19     3.2   972.4    0.00 
 350   20:00   0.00   48.9    92    0.4    16     1.7   972.4    0.00 
 350   20:10   0.00   49.3    92    1.1   196     2.5   972.4    0.00 
 350   20:20   0.00   50.2    90    1.1   216     2.8   972.3    0.00 
 350   20:30   0.00   51.0    89    2.9   200     5.3   972.3    0.00 
 350   20:40   0.00   51.8    87    3.4   172     6.1   972.2    0.01 
 350   20:50   0.00   51.5    90    4.5   213     6.8   972.4    0.02 
 350   21:00   0.00   51.6    91    5.7   198     8.6   972.7    0.04 
 350   21:10   0.00   51.5    93    3.0   217     6.8   972.8    0.04 
 350   21:20   0.00   51.2    94    5.3    80    10.3   972.3    0.02 
 350   21:30   0.00   51.3    94    7.6   113    14.2   972.0    0.00 
 350   21:40   0.00   51.6    91    8.6   109    13.4   971.9    0.02 
 350   21:50   0.00   51.4    87    9.2    86    14.3   972.0    0.01 
 350   22:00   0.00   51.0    84    6.4    89    13.0   972.0    0.01 
 350   22:10   0.00   50.7    82    6.7    85    11.5   971.9    0.00 
 350   22:20   0.00   51.1    81    6.9    94    12.4   971.9    0.00 
 350   22:30   0.00   51.3    81    7.3    92    12.9   971.9    0.01 
 350   22:40   0.00   51.2    82    5.4   102     9.2   972.0    0.00 
 350   22:50   0.00   51.5    80    7.5    87    12.7   971.8    0.00 
 350   23:00   0.00   51.8    79    9.9    79    15.9   971.6    0.00 
 350   23:10   0.00   52.1    77    8.4    90    14.0   971.5    0.01 
 350   23:20   0.00   52.0    78    9.1    82    14.0   971.4    0.03 
 350   23:30   0.00   51.9    79    9.5    82    15.3   971.4    0.03 
 350   23:40   0.00   51.5    82    6.4    96    10.9   971.5    0.03 
 350   23:50   0.00   50.7    87    6.6   167     9.8   971.8    0.14 
 351    0:00   0.00   50.0    90    5.4   185     7.8   972.0    0.02 
 351    0:10   0.00   50.1    91    4.7   132     7.7   972.0    0.03 
 351    0:20   0.00   49.7    92    6.0    84     8.6   971.6    0.01 
 351    0:30   0.00   49.9    91    2.8    69     7.5   971.6    0.00 
 351    0:40   0.00   49.6    93    7.2   298     9.3   971.8    0.01 
 351    0:50   0.00   49.7    93    4.9    24     8.8   971.8    0.03 
 351    1:00   0.00   49.9    94    5.4    68     8.1   971.4    0.01 
 351    1:10   0.00   50.0    93    3.5    22     7.2   971.4    0.00 
 351    1:20   0.00   49.5    94    2.2   262     3.0   971.4    0.00 
 351    1:30   0.00   49.7    93    1.7    88     3.7   971.4    0.00 
 351    1:40   0.00   48.8    93    3.0   255     5.1   971.5    0.00 
 351    1:50   0.00   48.8    94    4.2   270     5.1   971.7    0.00 
 351    2:00   0.00   48.3    94    2.4   310     4.2   971.8    0.00 
 351    2:10   0.00   48.5    95    0.9   300     2.5   971.9    0.00 
 351    2:20   0.00   48.5    94    0.9   314     3.1   972.0    0.00 
 351    2:30   0.00   48.3    94    3.1   349     6.4   972.1    0.00 
 351    2:40   0.00   48.3    95    3.5   305     7.2   972.2    0.00 
 351    2:50   0.00   48.6    95    2.5   360     4.5   972.3    0.00 
 351    3:00   0.00   48.3    95    3.4   295     4.9   972.4    0.00 
 351    3:10   0.00   48.6    95    2.1   310     4.6   972.5    0.00 
 351    3:20   0.00   48.2    95    0.9   300     1.9   972.5    0.00 
 351    3:30   0.00   48.2    96    1.5   352     5.0   972.5    0.00 
 351    3:40   0.00   47.8    96    2.7   334     5.1   972.6    0.00 
 351    3:50   0.00   47.6    96    2.5   308     5.0   972.7    0.00 
 351    4:00   0.00   48.7    96    4.3   317     6.6   972.7    0.00 
 351    4:10   0.00   49.8    94    4.3   310     6.8   972.6    0.00 
 351    4:20   0.00   49.7    92    5.1   304     8.3   972.5    0.00 
 351    4:30   0.00   49.3    92    6.5   298     8.6   972.5    0.00 
 351    4:40   0.00   49.1    91    6.9   301     8.8   972.6    0.00 
 351    4:50   0.00   48.2    92    6.2   300     9.2   972.7    0.00 
 351    5:00   0.00   48.1    90    6.8   303     9.1   972.7    0.00 
 351    5:10   0.00   48.3    86    7.6   300     9.1   972.8    0.00 
 351    5:20   0.00   47.5    88    7.2   293     9.5   972.9    0.00 
 351    5:30   0.00   47.4    86    7.4   295     9.2   973.0    0.00 
 351    5:40   0.00   47.5    84    7.8   294     9.8   973.0    0.00 
 351    5:50   0.00   47.1    84    7.5   297     9.8   973.0    0.00 
 351    6:00   0.00   45.2    91    6.2   291     7.7   973.1    0.00 
 351    6:10   0.00   45.6    90    6.0   291     8.1   973.3    0.00 
 351    6:20   0.00   45.7    88    5.5   289     7.5   973.4    0.00 
 351    6:30   0.00   44.7    90    4.8   292     7.7   973.4    0.00 
 351    6:40   0.00   45.1    90    4.3   302     7.4   973.6    0.00 
 351    6:50   0.00   45.9    84    2.5   309    10.0   973.7    0.00 
 351    7:00   0.00   46.1    84    5.3   305     8.8   973.9    0.00 
 351    7:10   0.01   46.9    80    5.2   302     9.5   974.0    0.00 
 351    7:20   0.02   46.2    83    5.2   295     8.6   974.0    0.00 
 351    7:30   0.04   45.8    87    6.5   294    10.4   974.0    0.00 
 351    7:40   0.07   46.7    83    5.3   288     8.8   974.1    0.00 
 351    7:50   0.09   46.7    86    5.6   291     8.2   974.2    0.00 
 351    8:00   0.11   48.8    80    6.2   283     8.6   974.2    0.00 
 351    8:10   0.14   49.2    80    6.1   278     8.4   974.2    0.00 
 351    8:20   0.17   49.7    82    3.6   267     7.3   974.1    0.00 
 351    8:30   0.20   49.5    83    4.9   265     9.9   974.2    0.00 
 351    8:40   0.20   50.7    79    8.0   272    10.9   974.4    0.00 
 351    8:50   0.24   51.3    78    6.7   278     9.6   974.7    0.00 
 351    9:00   0.25   51.9    77    6.0   278     8.7   974.7    0.00 
 351    9:10   0.27   52.4    76    5.8   281     9.8   974.8    0.00 
 351    9:20   0.29   52.7    74    7.2   275     9.8   974.9    0.00 
 351    9:30   0.33   53.5    72    4.4   276     8.3   975.1    0.00 
 351    9:40   0.36   54.4    69    4.7   277     8.8   975.1    0.00 
 351    9:50   0.39   55.5    66    4.2   318     9.7   975.0    0.00 
 351   10:00   0.39   57.0    55    7.5   328    14.9   975.0    0.00 
 351   10:10   0.42   56.9    54    8.0   323    14.5   975.1    0.00 
 351   10:20   0.45   57.0    53    8.2   311    12.7   975.1    0.00 
 351   10:30   0.41   56.9    55    7.6   300    13.5   975.2    0.00 
 351   10:40   0.46   57.0    56    7.8   302    13.6   975.1    0.00 
 351   10:50   0.45   57.5    53    8.0   306    13.2   975.2    0.00 
 351   11:00   0.42   57.4    53    9.0   303    13.4   975.2    0.00 
 351   11:10   0.49   57.6    53    8.6   286    16.4   975.2    0.00 
 351   11:20   0.50   57.6    53   10.4   291    15.3   975.3    0.00 
 351   11:30   0.53   58.1    54    9.7   287    18.8   975.5    0.00 
 351   11:40   0.53   58.0    53   11.8   301    18.4   975.6    0.00 
 351   11:50   0.25   57.5    55    8.3   306    17.5   975.7    0.00 
 351   12:00   0.27   56.6    60    7.8   285    14.3   975.6    0.00 
 351   12:10   0.27   56.2    62    8.3   289    13.7   975.5    0.00 
 351   12:20   0.27   55.9    61    9.9   273    15.3   975.5    0.00 
 351   12:30   0.19   55.6    62   10.7   269    15.9   975.5    0.00 
 351   12:40   0.16   55.3    63   10.4   283    15.9   975.6    0.00 
 351   12:50   0.19   55.3    64    8.9   292    14.8   975.6    0.00 
 351   13:00   0.26   55.5    65    7.9   289    13.0   975.6    0.00 
 351   13:10   0.22   55.9    64    7.1   289    12.8   975.5    0.00 
 351   13:20   0.21   56.0    63    6.9   278    11.5   975.5    0.00 
 351   13:30   0.21   56.0    60    7.5   279    12.0   975.5    0.00 
 351   13:40   0.19   56.1    61    7.5   268    11.6   975.5    0.00 

Return to Sedgwick Reserve graphs page.


Western Regional Climate Center,wrcc@dri.edu